sensor_id;sensor_type;location;lat;lon;timestamp;temperature;humidity
2463;DHT22;1243;54.298;10.172;2023-12-20T00:01:22;5.60;1.00
2463;DHT22;1243;54.298;10.172;2023-12-20T00:03:48;5.60;1.00
2463;DHT22;1243;54.298;10.172;2023-12-20T00:06:13;5.60;1.00
2463;DHT22;1243;54.298;10.172;2023-12-20T00:08:39;5.60;1.00
2463;DHT22;1243;54.298;10.172;2023-12-20T00:11:05;5.50;1.00
2463;DHT22;1243;54.298;10.172;2023-12-20T00:13:30;5.60;1.00
2463;DHT22;1243;54.298;10.172;2023-12-20T00:15:56;5.60;1.00
2463;DHT22;1243;54.298;10.172;2023-12-20T00:18:22;5.60;1.00
2463;DHT22;1243;54.298;10.172;2023-12-20T00:20:48;5.60;1.00
2463;DHT22;1243;54.298;10.172;2023-12-20T00:23:14;5.50;1.00
2463;DHT22;1243;54.298;10.172;2023-12-20T00:25:40;5.50;1.00
2463;DHT22;1243;54.298;10.172;2023-12-20T00:28:06;5.50;1.00
2463;DHT22;1243;54.298;10.172;2023-12-20T00:30:32;5.60;1.00
2463;DHT22;1243;54.298;10.172;2023-12-20T00:32:57;5.60;1.00
2463;DHT22;1243;54.298;10.172;2023-12-20T00:35:23;5.60;1.00
2463;DHT22;1243;54.298;10.172;2023-12-20T00:37:49;5.60;1.00
2463;DHT22;1243;54.298;10.172;2023-12-20T00:40:15;5.70;1.00
2463;DHT22;1243;54.298;10.172;2023-12-20T00:42:41;5.70;1.00
2463;DHT22;1243;54.298;10.172;2023-12-20T00:45:07;5.70;1.00
2463;DHT22;1243;54.298;10.172;2023-12-20T00:47:33;5.80;1.00
2463;DHT22;1243;54.298;10.172;2023-12-20T00:49:58;5.80;1.00
2463;DHT22;1243;54.298;10.172;2023-12-20T00:52:24;5.80;1.00
2463;DHT22;1243;54.298;10.172;2023-12-20T00:54:50;5.80;1.00
2463;DHT22;1243;54.298;10.172;2023-12-20T00:57:16;5.70;1.00
2463;DHT22;1243;54.298;10.172;2023-12-20T00:59:42;5.80;1.00
2463;DHT22;1243;54.298;10.172;2023-12-20T01:02:07;5.70;1.00
2463;DHT22;1243;54.298;10.172;2023-12-20T01:04:34;5.70;1.00
2463;DHT22;1243;54.298;10.172;2023-12-20T01:07:00;5.70;1.00
2463;DHT22;1243;54.298;10.172;2023-12-20T01:09:25;5.60;1.00
2463;DHT22;1243;54.298;10.172;2023-12-20T01:11:54;5.60;1.00
2463;DHT22;1243;54.298;10.172;2023-12-20T01:14:20;5.60;1.00
2463;DHT22;1243;54.298;10.172;2023-12-20T01:16:45;5.50;1.00
2463;DHT22;1243;54.298;10.172;2023-12-20T01:19:12;5.60;1.00
2463;DHT22;1243;54.298;10.172;2023-12-20T01:21:39;5.60;1.00
2463;DHT22;1243;54.298;10.172;2023-12-20T01:24:04;5.60;1.00
2463;DHT22;1243;54.298;10.172;2023-12-20T01:26:30;5.70;1.00
2463;DHT22;1243;54.298;10.172;2023-12-20T01:28:55;5.60;1.00
2463;DHT22;1243;54.298;10.172;2023-12-20T01:31:21;5.70;1.00
2463;DHT22;1243;54.298;10.172;2023-12-20T01:33:47;5.70;1.00
2463;DHT22;1243;54.298;10.172;2023-12-20T01:36:12;5.80;1.00
2463;DHT22;1243;54.298;10.172;2023-12-20T01:38:38;5.70;1.00
2463;DHT22;1243;54.298;10.172;2023-12-20T01:41:04;5.80;1.00
2463;DHT22;1243;54.298;10.172;2023-12-20T01:43:30;5.80;1.00
2463;DHT22;1243;54.298;10.172;2023-12-20T01:45:57;5.80;1.00
2463;DHT22;1243;54.298;10.172;2023-12-20T01:48:24;5.90;1.00
2463;DHT22;1243;54.298;10.172;2023-12-20T01:50:50;5.90;1.00
2463;DHT22;1243;54.298;10.172;2023-12-20T01:53:17;5.90;1.00
2463;DHT22;1243;54.298;10.172;2023-12-20T01:55:44;5.90;1.00
2463;DHT22;1243;54.298;10.172;2023-12-20T01:58:11;5.90;1.00
2463;DHT22;1243;54.298;10.172;2023-12-20T02:00:37;5.90;1.00
2463;DHT22;1243;54.298;10.172;2023-12-20T02:03:04;6.00;1.00
2463;DHT22;1243;54.298;10.172;2023-12-20T02:05:31;6.00;1.00
2463;DHT22;1243;54.298;10.172;2023-12-20T02:07:57;5.90;1.00
2463;DHT22;1243;54.298;10.172;2023-12-20T02:10:23;5.90;1.00
2463;DHT22;1243;54.298;10.172;2023-12-20T02:12:49;5.90;1.00
2463;DHT22;1243;54.298;10.172;2023-12-20T02:15:15;5.90;1.00
2463;DHT22;1243;54.298;10.172;2023-12-20T02:17:41;6.00;1.00
2463;DHT22;1243;54.298;10.172;2023-12-20T02:20:07;6.00;1.00
2463;DHT22;1243;54.298;10.172;2023-12-20T02:22:32;6.00;1.00
2463;DHT22;1243;54.298;10.172;2023-12-20T02:24:58;6.00;1.00
2463;DHT22;1243;54.298;10.172;2023-12-20T02:27:24;6.00;1.00
2463;DHT22;1243;54.298;10.172;2023-12-20T02:29:50;6.00;1.00
2463;DHT22;1243;54.298;10.172;2023-12-20T02:32:17;6.00;1.00
2463;DHT22;1243;54.298;10.172;2023-12-20T02:34:43;6.00;1.00
2463;DHT22;1243;54.298;10.172;2023-12-20T02:37:09;6.10;1.00
2463;DHT22;1243;54.298;10.172;2023-12-20T02:39:34;6.10;1.00
2463;DHT22;1243;54.298;10.172;2023-12-20T02:42:00;6.10;1.00
2463;DHT22;1243;54.298;10.172;2023-12-20T02:44:26;6.00;1.00
2463;DHT22;1243;54.298;10.172;2023-12-20T02:46:51;6.00;1.00
2463;DHT22;1243;54.298;10.172;2023-12-20T02:49:17;6.00;1.00
2463;DHT22;1243;54.298;10.172;2023-12-20T02:51:43;6.00;1.00
2463;DHT22;1243;54.298;10.172;2023-12-20T02:54:09;6.00;1.00
2463;DHT22;1243;54.298;10.172;2023-12-20T02:56:34;6.00;1.00
2463;DHT22;1243;54.298;10.172;2023-12-20T02:59:00;6.10;1.00
2463;DHT22;1243;54.298;10.172;2023-12-20T03:01:27;6.20;1.00
2463;DHT22;1243;54.298;10.172;2023-12-20T03:03:53;6.10;1.00
2463;DHT22;1243;54.298;10.172;2023-12-20T03:06:19;6.10;1.00
2463;DHT22;1243;54.298;10.172;2023-12-20T03:08:45;6.00;1.00
2463;DHT22;1243;54.298;10.172;2023-12-20T03:11:11;6.00;1.00
2463;DHT22;1243;54.298;10.172;2023-12-20T03:13:36;6.00;1.00
2463;DHT22;1243;54.298;10.172;2023-12-20T03:16:11;6.00;1.00
2463;DHT22;1243;54.298;10.172;2023-12-20T03:18:37;6.10;1.00
2463;DHT22;1243;54.298;10.172;2023-12-20T03:21:06;6.00;1.00
2463;DHT22;1243;54.298;10.172;2023-12-20T03:23:32;6.00;1.00
2463;DHT22;1243;54.298;10.172;2023-12-20T03:25:59;6.10;1.00
2463;DHT22;1243;54.298;10.172;2023-12-20T03:28:26;6.10;1.00
2463;DHT22;1243;54.298;10.172;2023-12-20T03:30:52;6.10;1.00
2463;DHT22;1243;54.298;10.172;2023-12-20T03:33:17;6.20;1.00
2463;DHT22;1243;54.298;10.172;2023-12-20T03:35:43;6.20;1.00
2463;DHT22;1243;54.298;10.172;2023-12-20T03:38:09;6.20;1.00
2463;DHT22;1243;54.298;10.172;2023-12-20T03:40:34;6.20;1.00
2463;DHT22;1243;54.298;10.172;2023-12-20T03:43:00;6.30;1.00
2463;DHT22;1243;54.298;10.172;2023-12-20T03:45:26;6.30;1.00
2463;DHT22;1243;54.298;10.172;2023-12-20T03:47:52;6.30;1.00
2463;DHT22;1243;54.298;10.172;2023-12-20T03:50:25;6.30;1.00
2463;DHT22;1243;54.298;10.172;2023-12-20T03:52:51;6.30;1.00
2463;DHT22;1243;54.298;10.172;2023-12-20T03:55:17;6.30;1.00
2463;DHT22;1243;54.298;10.172;2023-12-20T03:57:43;6.20;1.00
2463;DHT22;1243;54.298;10.172;2023-12-20T04:00:10;6.20;1.00
2463;DHT22;1243;54.298;10.172;2023-12-20T04:02:38;6.20;1.00
2463;DHT22;1243;54.298;10.172;2023-12-20T04:05:04;6.20;1.00
2463;DHT22;1243;54.298;10.172;2023-12-20T04:07:30;6.20;1.00
2463;DHT22;1243;54.298;10.172;2023-12-20T04:09:56;6.10;1.00
2463;DHT22;1243;54.298;10.172;2023-12-20T04:12:22;6.10;1.00
2463;DHT22;1243;54.298;10.172;2023-12-20T04:14:47;6.10;1.00
2463;DHT22;1243;54.298;10.172;2023-12-20T04:17:14;6.10;1.00
2463;DHT22;1243;54.298;10.172;2023-12-20T04:19:41;6.10;1.00
2463;DHT22;1243;54.298;10.172;2023-12-20T04:22:07;6.20;1.00
2463;DHT22;1243;54.298;10.172;2023-12-20T04:24:33;6.10;1.00
2463;DHT22;1243;54.298;10.172;2023-12-20T04:26:58;6.10;1.00
2463;DHT22;1243;54.298;10.172;2023-12-20T04:29:24;6.10;1.00
2463;DHT22;1243;54.298;10.172;2023-12-20T04:31:50;6.10;1.00
2463;DHT22;1243;54.298;10.172;2023-12-20T04:34:17;6.10;1.00
2463;DHT22;1243;54.298;10.172;2023-12-20T04:36:43;6.00;1.00
2463;DHT22;1243;54.298;10.172;2023-12-20T04:39:09;5.90;1.00
2463;DHT22;1243;54.298;10.172;2023-12-20T04:41:35;5.90;1.00
2463;DHT22;1243;54.298;10.172;2023-12-20T04:44:00;5.90;1.00
2463;DHT22;1243;54.298;10.172;2023-12-20T04:46:26;5.90;1.00
2463;DHT22;1243;54.298;10.172;2023-12-20T04:48:52;5.80;1.00
2463;DHT22;1243;54.298;10.172;2023-12-20T04:51:18;5.80;1.00
2463;DHT22;1243;54.298;10.172;2023-12-20T04:53:43;5.90;1.00
2463;DHT22;1243;54.298;10.172;2023-12-20T04:56:09;5.90;1.00
2463;DHT22;1243;54.298;10.172;2023-12-20T04:58:35;6.00;1.00
2463;DHT22;1243;54.298;10.172;2023-12-20T05:01:01;6.00;1.00
2463;DHT22;1243;54.298;10.172;2023-12-20T05:03:27;6.00;1.00
2463;DHT22;1243;54.298;10.172;2023-12-20T05:05:53;6.10;1.00
2463;DHT22;1243;54.298;10.172;2023-12-20T05:08:18;6.10;1.00
2463;DHT22;1243;54.298;10.172;2023-12-20T05:10:45;6.10;1.00
2463;DHT22;1243;54.298;10.172;2023-12-20T05:13:10;6.20;1.00
2463;DHT22;1243;54.298;10.172;2023-12-20T05:15:36;6.20;1.00
2463;DHT22;1243;54.298;10.172;2023-12-20T05:18:02;6.20;1.00
2463;DHT22;1243;54.298;10.172;2023-12-20T05:20:27;6.30;1.00
2463;DHT22;1243;54.298;10.172;2023-12-20T05:22:53;6.20;1.00
2463;DHT22;1243;54.298;10.172;2023-12-20T05:25:19;6.20;1.00
2463;DHT22;1243;54.298;10.172;2023-12-20T05:27:45;6.20;1.00
2463;DHT22;1243;54.298;10.172;2023-12-20T05:30:11;6.20;1.00
2463;DHT22;1243;54.298;10.172;2023-12-20T05:32:36;6.30;1.00
2463;DHT22;1243;54.298;10.172;2023-12-20T05:35:02;6.30;1.00
2463;DHT22;1243;54.298;10.172;2023-12-20T05:37:28;6.30;1.00
2463;DHT22;1243;54.298;10.172;2023-12-20T05:39:54;6.20;1.00
2463;DHT22;1243;54.298;10.172;2023-12-20T05:42:20;6.10;1.00
2463;DHT22;1243;54.298;10.172;2023-12-20T05:44:45;6.10;1.00
2463;DHT22;1243;54.298;10.172;2023-12-20T05:47:11;6.00;1.00
2463;DHT22;1243;54.298;10.172;2023-12-20T05:49:36;5.90;1.00
2463;DHT22;1243;54.298;10.172;2023-12-20T05:52:02;5.90;1.00
2463;DHT22;1243;54.298;10.172;2023-12-20T05:54:28;5.80;1.00
2463;DHT22;1243;54.298;10.172;2023-12-20T05:56:54;5.80;1.00
2463;DHT22;1243;54.298;10.172;2023-12-20T05:59:19;5.80;1.00
2463;DHT22;1243;54.298;10.172;2023-12-20T06:01:45;5.80;1.00
2463;DHT22;1243;54.298;10.172;2023-12-20T06:04:11;5.90;1.00
2463;DHT22;1243;54.298;10.172;2023-12-20T06:06:43;5.90;1.00
2463;DHT22;1243;54.298;10.172;2023-12-20T06:09:09;5.90;1.00
2463;DHT22;1243;54.298;10.172;2023-12-20T06:11:34;5.90;1.00
2463;DHT22;1243;54.298;10.172;2023-12-20T06:14:00;6.00;1.00
2463;DHT22;1243;54.298;10.172;2023-12-20T06:16:26;6.00;1.00
2463;DHT22;1243;54.298;10.172;2023-12-20T06:18:51;6.10;1.00
2463;DHT22;1243;54.298;10.172;2023-12-20T06:21:17;6.10;1.00
2463;DHT22;1243;54.298;10.172;2023-12-20T06:23:43;6.10;1.00
2463;DHT22;1243;54.298;10.172;2023-12-20T06:26:09;6.10;1.00
2463;DHT22;1243;54.298;10.172;2023-12-20T06:28:34;6.10;1.00
2463;DHT22;1243;54.298;10.172;2023-12-20T06:31:00;6.20;1.00
2463;DHT22;1243;54.298;10.172;2023-12-20T06:33:26;6.20;1.00
2463;DHT22;1243;54.298;10.172;2023-12-20T06:35:52;6.20;1.00
2463;DHT22;1243;54.298;10.172;2023-12-20T06:38:18;6.30;1.00
2463;DHT22;1243;54.298;10.172;2023-12-20T06:40:44;6.20;1.00
2463;DHT22;1243;54.298;10.172;2023-12-20T06:43:10;6.20;1.00
2463;DHT22;1243;54.298;10.172;2023-12-20T06:45:36;6.20;1.00
2463;DHT22;1243;54.298;10.172;2023-12-20T06:48:01;6.30;1.00
2463;DHT22;1243;54.298;10.172;2023-12-20T06:50:27;6.40;1.00
2463;DHT22;1243;54.298;10.172;2023-12-20T06:52:53;6.40;1.00
2463;DHT22;1243;54.298;10.172;2023-12-20T06:55:18;6.40;1.00
2463;DHT22;1243;54.298;10.172;2023-12-20T06:57:44;6.50;1.00
2463;DHT22;1243;54.298;10.172;2023-12-20T07:00:11;6.40;1.00
2463;DHT22;1243;54.298;10.172;2023-12-20T07:02:37;6.30;1.00
2463;DHT22;1243;54.298;10.172;2023-12-20T07:05:03;6.20;1.00
2463;DHT22;1243;54.298;10.172;2023-12-20T07:07:29;6.20;1.00
2463;DHT22;1243;54.298;10.172;2023-12-20T07:09:55;6.20;1.00
2463;DHT22;1243;54.298;10.172;2023-12-20T07:12:23;6.20;1.00
2463;DHT22;1243;54.298;10.172;2023-12-20T07:14:49;6.20;1.00
2463;DHT22;1243;54.298;10.172;2023-12-20T07:17:15;6.20;1.00
2463;DHT22;1243;54.298;10.172;2023-12-20T07:19:41;6.20;1.00
2463;DHT22;1243;54.298;10.172;2023-12-20T07:22:07;6.20;1.00
2463;DHT22;1243;54.298;10.172;2023-12-20T07:24:33;6.20;1.00
2463;DHT22;1243;54.298;10.172;2023-12-20T07:27:02;6.10;1.00
2463;DHT22;1243;54.298;10.172;2023-12-20T07:29:28;6.10;1.00
2463;DHT22;1243;54.298;10.172;2023-12-20T07:31:55;6.00;1.00
2463;DHT22;1243;54.298;10.172;2023-12-20T07:34:21;6.00;1.00
2463;DHT22;1243;54.298;10.172;2023-12-20T07:36:46;6.00;1.00
2463;DHT22;1243;54.298;10.172;2023-12-20T07:39:13;6.10;1.00
2463;DHT22;1243;54.298;10.172;2023-12-20T07:41:39;6.10;1.00
2463;DHT22;1243;54.298;10.172;2023-12-20T07:44:04;6.20;1.00
2463;DHT22;1243;54.298;10.172;2023-12-20T07:46:30;6.20;1.00
2463;DHT22;1243;54.298;10.172;2023-12-20T07:48:56;6.20;1.00
2463;DHT22;1243;54.298;10.172;2023-12-20T07:51:21;6.20;1.00
2463;DHT22;1243;54.298;10.172;2023-12-20T07:53:47;6.20;1.00
2463;DHT22;1243;54.298;10.172;2023-12-20T07:56:14;6.20;1.00
2463;DHT22;1243;54.298;10.172;2023-12-20T07:58:40;6.20;1.00
2463;DHT22;1243;54.298;10.172;2023-12-20T08:01:06;6.20;1.00
2463;DHT22;1243;54.298;10.172;2023-12-20T08:03:32;6.20;1.00
2463;DHT22;1243;54.298;10.172;2023-12-20T08:05:57;6.20;1.00
2463;DHT22;1243;54.298;10.172;2023-12-20T08:08:25;6.20;1.00
2463;DHT22;1243;54.298;10.172;2023-12-20T08:10:50;6.20;1.00
2463;DHT22;1243;54.298;10.172;2023-12-20T08:13:16;6.20;1.00
2463;DHT22;1243;54.298;10.172;2023-12-20T08:15:42;6.20;1.00
2463;DHT22;1243;54.298;10.172;2023-12-20T08:18:07;6.10;1.00
2463;DHT22;1243;54.298;10.172;2023-12-20T08:20:33;6.10;1.00
2463;DHT22;1243;54.298;10.172;2023-12-20T08:22:59;6.10;1.00
2463;DHT22;1243;54.298;10.172;2023-12-20T08:25:24;6.10;1.00
2463;DHT22;1243;54.298;10.172;2023-12-20T08:27:50;6.00;1.00
2463;DHT22;1243;54.298;10.172;2023-12-20T08:30:16;6.00;1.00
2463;DHT22;1243;54.298;10.172;2023-12-20T08:32:46;6.00;1.00
2463;DHT22;1243;54.298;10.172;2023-12-20T08:35:11;6.00;1.00
2463;DHT22;1243;54.298;10.172;2023-12-20T08:37:37;6.00;1.00
2463;DHT22;1243;54.298;10.172;2023-12-20T08:40:03;6.00;1.00
2463;DHT22;1243;54.298;10.172;2023-12-20T08:42:29;6.00;1.00
2463;DHT22;1243;54.298;10.172;2023-12-20T08:44:57;6.00;1.00
2463;DHT22;1243;54.298;10.172;2023-12-20T08:47:24;5.90;1.00
2463;DHT22;1243;54.298;10.172;2023-12-20T08:49:50;5.80;1.00
2463;DHT22;1243;54.298;10.172;2023-12-20T08:52:15;5.80;1.00
2463;DHT22;1243;54.298;10.172;2023-12-20T08:54:41;5.70;1.00
2463;DHT22;1243;54.298;10.172;2023-12-20T08:57:07;5.70;1.00
2463;DHT22;1243;54.298;10.172;2023-12-20T08:59:33;5.60;1.00
2463;DHT22;1243;54.298;10.172;2023-12-20T09:01:59;5.50;1.00
2463;DHT22;1243;54.298;10.172;2023-12-20T09:04:25;5.40;1.00
2463;DHT22;1243;54.298;10.172;2023-12-20T09:06:51;5.40;1.00
2463;DHT22;1243;54.298;10.172;2023-12-20T09:09:16;5.30;1.00
2463;DHT22;1243;54.298;10.172;2023-12-20T09:11:42;5.40;1.00
2463;DHT22;1243;54.298;10.172;2023-12-20T09:14:08;5.40;1.00
2463;DHT22;1243;54.298;10.172;2023-12-20T09:16:34;5.30;1.00
2463;DHT22;1243;54.298;10.172;2023-12-20T09:19:00;5.30;1.00
2463;DHT22;1243;54.298;10.172;2023-12-20T09:21:26;5.20;1.00
2463;DHT22;1243;54.298;10.172;2023-12-20T09:23:51;5.30;1.00
2463;DHT22;1243;54.298;10.172;2023-12-20T09:26:17;5.30;1.00
2463;DHT22;1243;54.298;10.172;2023-12-20T09:28:44;5.20;1.00
2463;DHT22;1243;54.298;10.172;2023-12-20T09:31:10;5.10;1.00
2463;DHT22;1243;54.298;10.172;2023-12-20T09:33:36;5.10;1.00
2463;DHT22;1243;54.298;10.172;2023-12-20T09:36:01;5.20;1.00
2463;DHT22;1243;54.298;10.172;2023-12-20T09:38:27;5.10;1.00
2463;DHT22;1243;54.298;10.172;2023-12-20T09:40:53;5.10;1.00
2463;DHT22;1243;54.298;10.172;2023-12-20T09:43:20;5.10;1.00
2463;DHT22;1243;54.298;10.172;2023-12-20T09:45:53;5.10;1.00
2463;DHT22;1243;54.298;10.172;2023-12-20T09:48:19;5.20;1.00
2463;DHT22;1243;54.298;10.172;2023-12-20T09:50:46;5.20;1.00
2463;DHT22;1243;54.298;10.172;2023-12-20T09:53:15;5.10;1.00
2463;DHT22;1243;54.298;10.172;2023-12-20T09:55:41;5.10;1.00
2463;DHT22;1243;54.298;10.172;2023-12-20T09:58:07;5.10;1.00
2463;DHT22;1243;54.298;10.172;2023-12-20T10:00:35;5.10;1.00
2463;DHT22;1243;54.298;10.172;2023-12-20T10:03:00;5.10;1.00
2463;DHT22;1243;54.298;10.172;2023-12-20T10:05:31;5.10;1.00
2463;DHT22;1243;54.298;10.172;2023-12-20T10:07:58;5.10;1.00
2463;DHT22;1243;54.298;10.172;2023-12-20T10:10:24;5.20;1.00
2463;DHT22;1243;54.298;10.172;2023-12-20T10:13:07;5.20;1.00
2463;DHT22;1243;54.298;10.172;2023-12-20T10:15:34;5.30;1.00
2463;DHT22;1243;54.298;10.172;2023-12-20T10:18:04;5.30;1.00
2463;DHT22;1243;54.298;10.172;2023-12-20T10:20:31;5.40;1.00
2463;DHT22;1243;54.298;10.172;2023-12-20T10:22:58;5.40;1.00
2463;DHT22;1243;54.298;10.172;2023-12-20T10:25:24;5.40;1.00
2463;DHT22;1243;54.298;10.172;2023-12-20T10:30:33;5.80;1.00
2463;DHT22;1243;54.298;10.172;2023-12-20T10:32:59;5.80;1.00
2463;DHT22;1243;54.298;10.172;2023-12-20T10:35:24;5.70;1.00
2463;DHT22;1243;54.298;10.172;2023-12-20T10:37:52;5.60;1.00
2463;DHT22;1243;54.298;10.172;2023-12-20T10:40:21;5.60;1.00
2463;DHT22;1243;54.298;10.172;2023-12-20T10:42:47;5.50;1.00
2463;DHT22;1243;54.298;10.172;2023-12-20T10:45:13;5.40;1.00
2463;DHT22;1243;54.298;10.172;2023-12-20T10:47:39;5.50;1.00
2463;DHT22;1243;54.298;10.172;2023-12-20T10:50:06;5.50;1.00
2463;DHT22;1243;54.298;10.172;2023-12-20T10:52:34;5.50;1.00
2463;DHT22;1243;54.298;10.172;2023-12-20T10:55:01;5.60;1.00
2463;DHT22;1243;54.298;10.172;2023-12-20T10:57:27;5.70;1.00
2463;DHT22;1243;54.298;10.172;2023-12-20T10:59:54;5.70;1.00
2463;DHT22;1243;54.298;10.172;2023-12-20T11:02:20;5.80;1.00
2463;DHT22;1243;54.298;10.172;2023-12-20T11:04:59;5.70;1.00
2463;DHT22;1243;54.298;10.172;2023-12-20T11:07:34;5.70;99.90
2463;DHT22;1243;54.298;10.172;2023-12-20T11:10:13;5.60;99.90
2463;DHT22;1243;54.298;10.172;2023-12-20T11:12:49;5.60;99.90
2463;DHT22;1243;54.298;10.172;2023-12-20T11:15:16;5.50;99.90
2463;DHT22;1243;54.298;10.172;2023-12-20T11:17:45;5.50;99.90
2463;DHT22;1243;54.298;10.172;2023-12-20T11:20:11;5.40;99.90
2463;DHT22;1243;54.298;10.172;2023-12-20T11:22:38;5.40;99.90
2463;DHT22;1243;54.298;10.172;2023-12-20T11:25:10;5.50;99.90
2463;DHT22;1243;54.298;10.172;2023-12-20T11:27:40;5.70;99.90
2463;DHT22;1243;54.298;10.172;2023-12-20T11:30:06;5.90;99.90
2463;DHT22;1243;54.298;10.172;2023-12-20T11:32:35;5.90;99.90
2463;DHT22;1243;54.298;10.172;2023-12-20T11:35:17;6.00;99.90
2463;DHT22;1243;54.298;10.172;2023-12-20T11:37:43;5.90;99.90
2463;DHT22;1243;54.298;10.172;2023-12-20T11:40:14;6.00;99.90
2463;DHT22;1243;54.298;10.172;2023-12-20T11:42:49;6.20;99.90
2463;DHT22;1243;54.298;10.172;2023-12-20T11:45:21;6.00;99.90
2463;DHT22;1243;54.298;10.172;2023-12-20T11:47:48;6.00;99.90
2463;DHT22;1243;54.298;10.172;2023-12-20T11:50:20;5.90;99.90
2463;DHT22;1243;54.298;10.172;2023-12-20T11:52:47;5.80;99.90
2463;DHT22;1243;54.298;10.172;2023-12-20T11:55:13;5.80;99.90
2463;DHT22;1243;54.298;10.172;2023-12-20T11:57:39;5.80;99.90
2463;DHT22;1243;54.298;10.172;2023-12-20T12:00:05;5.80;99.90
2463;DHT22;1243;54.298;10.172;2023-12-20T12:02:32;5.90;99.90
2463;DHT22;1243;54.298;10.172;2023-12-20T12:04:59;5.90;99.90
2463;DHT22;1243;54.298;10.172;2023-12-20T12:07:25;6.00;99.90
2463;DHT22;1243;54.298;10.172;2023-12-20T12:09:51;6.10;99.90
2463;DHT22;1243;54.298;10.172;2023-12-20T12:12:17;6.10;99.90
2463;DHT22;1243;54.298;10.172;2023-12-20T12:14:45;6.00;99.90
2463;DHT22;1243;54.298;10.172;2023-12-20T12:17:14;6.10;99.90
2463;DHT22;1243;54.298;10.172;2023-12-20T12:19:41;6.10;99.90
2463;DHT22;1243;54.298;10.172;2023-12-20T12:22:12;6.20;99.90
2463;DHT22;1243;54.298;10.172;2023-12-20T12:24:45;6.30;99.90
2463;DHT22;1243;54.298;10.172;2023-12-20T12:27:12;6.40;99.90
2463;DHT22;1243;54.298;10.172;2023-12-20T12:29:38;6.50;99.90
2463;DHT22;1243;54.298;10.172;2023-12-20T12:32:08;6.60;99.90
2463;DHT22;1243;54.298;10.172;2023-12-20T12:34:35;6.80;99.90
2463;DHT22;1243;54.298;10.172;2023-12-20T12:37:01;6.90;99.90
2463;DHT22;1243;54.298;10.172;2023-12-20T12:39:27;6.50;99.90
2463;DHT22;1243;54.298;10.172;2023-12-20T12:41:53;6.20;99.90
2463;DHT22;1243;54.298;10.172;2023-12-20T12:44:19;6.00;99.90
2463;DHT22;1243;54.298;10.172;2023-12-20T12:46:46;5.80;99.90
2463;DHT22;1243;54.298;10.172;2023-12-20T12:49:12;5.80;99.90
2463;DHT22;1243;54.298;10.172;2023-12-20T12:51:38;5.80;99.90
2463;DHT22;1243;54.298;10.172;2023-12-20T12:54:04;5.60;99.90
2463;DHT22;1243;54.298;10.172;2023-12-20T12:56:30;5.50;99.90
2463;DHT22;1243;54.298;10.172;2023-12-20T12:58:56;5.60;99.90
2463;DHT22;1243;54.298;10.172;2023-12-20T13:01:21;5.70;99.90
2463;DHT22;1243;54.298;10.172;2023-12-20T13:03:47;5.90;99.90
2463;DHT22;1243;54.298;10.172;2023-12-20T13:06:13;5.90;99.90
2463;DHT22;1243;54.298;10.172;2023-12-20T13:08:39;6.00;99.90
2463;DHT22;1243;54.298;10.172;2023-12-20T13:11:04;6.00;98.40
2463;DHT22;1243;54.298;10.172;2023-12-20T13:13:30;6.10;98.00
2463;DHT22;1243;54.298;10.172;2023-12-20T13:15:56;6.10;78.20
2463;DHT22;1243;54.298;10.172;2023-12-20T13:18:23;6.10;78.20
2463;DHT22;1243;54.298;10.172;2023-12-20T13:20:49;6.10;64.70
2463;DHT22;1243;54.298;10.172;2023-12-20T13:23:14;6.10;44.20
2463;DHT22;1243;54.298;10.172;2023-12-20T13:25:41;6.10;44.00
2463;DHT22;1243;54.298;10.172;2023-12-20T13:28:07;6.20;39.30
2463;DHT22;1243;54.298;10.172;2023-12-20T13:30:34;6.20;1.00
2463;DHT22;1243;54.298;10.172;2023-12-20T13:33:00;6.30;1.00
2463;DHT22;1243;54.298;10.172;2023-12-20T13:35:25;6.30;1.00
2463;DHT22;1243;54.298;10.172;2023-12-20T13:37:51;6.30;1.00
2463;DHT22;1243;54.298;10.172;2023-12-20T13:40:17;6.30;1.00
2463;DHT22;1243;54.298;10.172;2023-12-20T13:42:43;6.30;1.00
2463;DHT22;1243;54.298;10.172;2023-12-20T13:45:09;6.30;1.00
2463;DHT22;1243;54.298;10.172;2023-12-20T13:47:35;6.30;1.00
2463;DHT22;1243;54.298;10.172;2023-12-20T13:50:02;6.30;1.00
2463;DHT22;1243;54.298;10.172;2023-12-20T13:52:28;6.30;1.00
2463;DHT22;1243;54.298;10.172;2023-12-20T13:54:54;6.20;1.00
2463;DHT22;1243;54.298;10.172;2023-12-20T13:57:19;6.10;1.00
2463;DHT22;1243;54.298;10.172;2023-12-20T13:59:45;6.10;1.00
2463;DHT22;1243;54.298;10.172;2023-12-20T14:02:11;6.20;1.00
2463;DHT22;1243;54.298;10.172;2023-12-20T14:04:36;6.30;1.00
2463;DHT22;1243;54.298;10.172;2023-12-20T14:07:04;6.20;1.00
2463;DHT22;1243;54.298;10.172;2023-12-20T14:09:30;6.20;1.00
2463;DHT22;1243;54.298;10.172;2023-12-20T14:11:56;6.10;1.00
2463;DHT22;1243;54.298;10.172;2023-12-20T14:14:21;5.90;1.00
2463;DHT22;1243;54.298;10.172;2023-12-20T14:16:47;5.90;1.00
2463;DHT22;1243;54.298;10.172;2023-12-20T14:19:13;5.80;1.00
2463;DHT22;1243;54.298;10.172;2023-12-20T14:21:38;5.80;1.00
2463;DHT22;1243;54.298;10.172;2023-12-20T14:24:04;5.70;1.00
2463;DHT22;1243;54.298;10.172;2023-12-20T14:26:30;5.60;1.00
2463;DHT22;1243;54.298;10.172;2023-12-20T14:28:57;5.60;1.00
2463;DHT22;1243;54.298;10.172;2023-12-20T14:31:23;5.60;1.00
2463;DHT22;1243;54.298;10.172;2023-12-20T14:33:50;5.60;1.00
2463;DHT22;1243;54.298;10.172;2023-12-20T14:36:18;5.60;1.00
2463;DHT22;1243;54.298;10.172;2023-12-20T14:38:45;5.50;1.00
2463;DHT22;1243;54.298;10.172;2023-12-20T14:41:12;5.40;1.00
2463;DHT22;1243;54.298;10.172;2023-12-20T14:43:38;5.50;1.00
2463;DHT22;1243;54.298;10.172;2023-12-20T14:46:03;5.40;1.00
2463;DHT22;1243;54.298;10.172;2023-12-20T14:48:31;5.40;1.00
2463;DHT22;1243;54.298;10.172;2023-12-20T14:50:57;5.50;1.00
2463;DHT22;1243;54.298;10.172;2023-12-20T14:53:24;5.50;1.00
2463;DHT22;1243;54.298;10.172;2023-12-20T14:55:50;5.40;1.00
2463;DHT22;1243;54.298;10.172;2023-12-20T14:58:16;5.30;1.00
2463;DHT22;1243;54.298;10.172;2023-12-20T15:00:42;5.30;1.00
2463;DHT22;1243;54.298;10.172;2023-12-20T15:03:09;5.30;1.00
2463;DHT22;1243;54.298;10.172;2023-12-20T15:05:35;5.20;1.00
2463;DHT22;1243;54.298;10.172;2023-12-20T15:08:01;5.20;1.00
2463;DHT22;1243;54.298;10.172;2023-12-20T15:10:27;5.20;1.00
2463;DHT22;1243;54.298;10.172;2023-12-20T15:12:52;5.20;1.00
2463;DHT22;1243;54.298;10.172;2023-12-20T15:15:19;5.20;1.00
2463;DHT22;1243;54.298;10.172;2023-12-20T15:17:45;5.10;1.00
2463;DHT22;1243;54.298;10.172;2023-12-20T15:20:11;5.20;1.00
2463;DHT22;1243;54.298;10.172;2023-12-20T15:22:37;5.20;1.00
2463;DHT22;1243;54.298;10.172;2023-12-20T15:25:03;5.20;1.00
2463;DHT22;1243;54.298;10.172;2023-12-20T15:27:31;5.30;1.00
2463;DHT22;1243;54.298;10.172;2023-12-20T15:29:59;5.30;1.00
2463;DHT22;1243;54.298;10.172;2023-12-20T15:32:24;5.30;1.00
2463;DHT22;1243;54.298;10.172;2023-12-20T15:34:50;5.30;1.00
2463;DHT22;1243;54.298;10.172;2023-12-20T15:37:17;5.40;1.00
2463;DHT22;1243;54.298;10.172;2023-12-20T15:39:43;5.50;1.00
2463;DHT22;1243;54.298;10.172;2023-12-20T15:42:09;5.40;1.00
2463;DHT22;1243;54.298;10.172;2023-12-20T15:44:34;5.40;1.00
2463;DHT22;1243;54.298;10.172;2023-12-20T15:47:00;5.50;1.00
2463;DHT22;1243;54.298;10.172;2023-12-20T15:49:26;5.50;1.00
2463;DHT22;1243;54.298;10.172;2023-12-20T15:51:51;5.50;1.00
2463;DHT22;1243;54.298;10.172;2023-12-20T15:54:17;5.50;1.00
2463;DHT22;1243;54.298;10.172;2023-12-20T15:56:43;5.60;1.00
2463;DHT22;1243;54.298;10.172;2023-12-20T15:59:10;5.60;1.00
2463;DHT22;1243;54.298;10.172;2023-12-20T16:01:36;5.70;1.00
2463;DHT22;1243;54.298;10.172;2023-12-20T16:04:02;5.50;1.00
2463;DHT22;1243;54.298;10.172;2023-12-20T16:06:28;5.50;1.00
2463;DHT22;1243;54.298;10.172;2023-12-20T16:08:54;5.50;1.00
2463;DHT22;1243;54.298;10.172;2023-12-20T16:11:20;5.60;1.00